Time;durP1;ratioP1;P1;durP2;ratioP2;P2;SDS_P1;SDS_P2;PMS_P1;PMS_P2;Temp;Humidity;BMP_temperature;BMP_pressure;BME280_temperature;BME280_humidity;BME280_pressure;Samples;Min_cycle;Max_cycle;Signal;HPM_P1;HPM_P2
2022/11/14 00:00:44;;;;;;;36.90;22.75;;;;;;;;;;4942953;28;20030;-83
2022/11/14 00:03:10;;;;;;;39.50;22.92;;;;;;;;;;4979528;28;20084;-83
2022/11/14 00:05:40;;;;;;;41.83;24.80;;;;;;;;;;4995965;28;20030;-83
2022/11/14 00:08:06;;;;;;;42.95;26.10;;;;;;;;;;4996127;28;20026;-82
2022/11/14 00:10:31;;;;;;;51.33;28.88;;;;;;;;;;4980135;28;20037;-81
2022/11/14 00:12:57;;;;;;;51.13;29.52;;;;;;;;;;4979436;28;20100;-81
2022/11/14 00:15:22;;;;;;;58.17;33.13;;;;;;;;;;4969172;28;20492;-81
2022/11/14 00:17:49;;;;;;;63.42;35.30;;;;;;;;;;4943977;28;20421;-81
2022/11/14 00:20:14;;;;;;;64.07;37.22;;;;;;;;;;4940860;28;20042;-80
2022/11/14 00:22:40;;;;;;;63.00;36.63;;;;;;;;;;4925366;28;20102;-81
2022/11/14 00:25:05;;;;;;;64.22;38.20;;;;;;;;;;4940477;28;20045;-81
2022/11/14 00:27:31;;;;;;;68.10;41.95;;;;;;;;;;4941103;28;20043;-82
2022/11/14 00:29:56;;;;;;;74.75;45.22;;;;;;;;;;4940720;28;20043;-82
2022/11/14 00:32:22;;;;;;;83.55;47.33;;;;;;;;;;4940368;28;20043;-82
2022/11/14 00:34:48;;;;;;;79.78;46.38;;;;;;;;;;4940446;28;20417;-82
2022/11/14 00:37:13;;;;;;;88.65;50.63;;;;;;;;;;4939713;28;20039;-82
2022/11/14 00:39:39;;;;;;;103.57;58.50;;;;;;;;;;4943465;28;20382;-82
2022/11/14 00:42:04;;;;;;;113.55;64.30;;;;;;;;;;4943783;28;20405;-82
2022/11/14 00:44:29;;;;;;;118.28;66.20;;;;;;;;;;4943311;28;20034;-82
2022/11/14 00:46:55;;;;;;;122.55;67.90;;;;;;;;;;4943671;28;20046;-82
2022/11/14 00:49:20;;;;;;;128.40;71.55;;;;;;;;;;4943289;28;20383;-82
2022/11/14 00:51:46;;;;;;;128.98;70.32;;;;;;;;;;4955706;28;20034;-82
2022/11/14 00:54:11;;;;;;;141.30;79.85;;;;;;;;;;4938954;28;20572;-82
2022/11/14 00:56:36;;;;;;;163.38;87.45;;;;;;;;;;4923609;28;20074;-82
2022/11/14 00:59:02;;;;;;;149.85;82.60;;;;;;;;;;4945193;28;20065;-82
2022/11/14 01:01:27;;;;;;;160.20;90.18;;;;;;;;;;4962764;28;20420;-82
2022/11/14 01:03:53;;;;;;;157.60;89.72;;;;;;;;;;4978157;28;20045;-82
2022/11/14 01:06:18;;;;;;;166.35;94.50;;;;;;;;;;4978940;28;20385;-83
2022/11/14 01:08:44;;;;;;;164.02;96.05;;;;;;;;;;4962426;28;20045;-83
2022/11/14 01:11:11;;;;;;;166.95;92.22;;;;;;;;;;4962132;28;20048;-83
2022/11/14 01:13:37;;;;;;;161.35;87.63;;;;;;;;;;4978592;28;20034;-82
2022/11/14 01:16:02;;;;;;;161.75;90.82;;;;;;;;;;4930887;28;20034;-82
2022/11/14 01:18:28;;;;;;;147.75;89.60;;;;;;;;;;4942473;28;20045;-82
2022/11/14 01:20:53;;;;;;;153.60;89.32;;;;;;;;;;4942685;28;20044;-82
2022/11/14 01:23:19;;;;;;;148.23;85.30;;;;;;;;;;4943290;28;20448;-82
2022/11/14 01:25:44;;;;;;;154.55;86.53;;;;;;;;;;4958766;28;20050;-83
2022/11/14 01:28:19;;;;;;;141.30;84.68;;;;;;;;;;4958693;28;20061;-82
2022/11/14 01:30:44;;;;;;;145.18;84.65;;;;;;;;;;4958632;28;20057;-82
2022/11/14 01:33:10;;;;;;;155.82;93.22;;;;;;;;;;4958181;28;20417;-83
2022/11/14 01:35:36;;;;;;;204.95;116.90;;;;;;;;;;4958754;28;20045;-82
2022/11/14 01:38:01;;;;;;;223.30;131.18;;;;;;;;;;4943187;28;20047;-82
2022/11/14 01:40:27;;;;;;;260.85;143.80;;;;;;;;;;4958556;28;20412;-83
2022/11/14 01:43:23;;;;;;;271.40;144.60;;;;;;;;;;4926953;28;20038;-83
2022/11/14 01:46:02;;;;;;;279.90;152.65;;;;;;;;;;4958322;28;20034;-82
2022/11/14 01:49:15;;;;;;;311.67;170.90;;;;;;;;;;4943187;28;20034;-82
2022/11/14 01:51:45;;;;;;;320.92;167.80;;;;;;;;;;4916500;28;20042;-83
2022/11/14 01:54:15;;;;;;;317.48;170.50;;;;;;;;;;4958889;28;20038;-82
2022/11/14 01:56:52;;;;;;;302.98;161.80;;;;;;;;;;4942380;28;20077;-83
2022/11/14 01:59:21;;;;;;;290.92;157.40;;;;;;;;;;4963989;28;20481;-83
2022/11/14 02:01:48;;;;;;;283.08;150.95;;;;;;;;;;4993924;28;20076;-83
2022/11/14 02:04:19;;;;;;;273.38;149.65;;;;;;;;;;4994300;28;20038;-83
2022/11/14 02:06:44;;;;;;;268.55;142.45;;;;;;;;;;4994312;28;20117;-84
2022/11/14 02:09:10;;;;;;;258.38;145.05;;;;;;;;;;4945801;28;20116;-84
2022/11/14 02:11:38;;;;;;;247.77;134.27;;;;;;;;;;4961657;28;20034;-84
2022/11/14 02:14:05;;;;;;;250.57;133.98;;;;;;;;;;4977726;28;20033;-83
2022/11/14 02:16:30;;;;;;;240.02;126.65;;;;;;;;;;4939348;28;20034;-84
2022/11/14 02:18:56;;;;;;;227.05;121.63;;;;;;;;;;4923541;28;20078;-84
2022/11/14 02:21:21;;;;;;;219.20;121.68;;;;;;;;;;4923387;28;20043;-84
2022/11/14 02:23:47;;;;;;;217.57;117.65;;;;;;;;;;4939324;28;20046;-84
2022/11/14 02:26:12;;;;;;;212.32;116.93;;;;;;;;;;4938836;28;20398;-84
2022/11/14 02:28:37;;;;;;;199.05;108.38;;;;;;;;;;4923167;28;20425;-84
2022/11/14 02:31:03;;;;;;;191.00;106.30;;;;;;;;;;4923290;28;20417;-84
2022/11/14 02:33:29;;;;;;;185.27;101.25;;;;;;;;;;4938882;28;20383;-84
2022/11/14 02:35:54;;;;;;;177.25;97.93;;;;;;;;;;4923115;28;20514;-83
2022/11/14 02:38:20;;;;;;;172.45;91.90;;;;;;;;;;4923931;28;20437;-83
2022/11/14 02:40:45;;;;;;;169.18;86.18;;;;;;;;;;4916499;28;20453;-83
2022/11/14 02:43:11;;;;;;;167.23;89.18;;;;;;;;;;4954698;28;20034;-84
2022/11/14 02:45:36;;;;;;;157.25;85.88;;;;;;;;;;4954356;28;20038;-84
2022/11/14 02:48:02;;;;;;;149.10;80.50;;;;;;;;;;4954923;28;20414;-84
2022/11/14 02:50:27;;;;;;;149.50;81.45;;;;;;;;;;4955044;28;20062;-83
2022/11/14 02:52:53;;;;;;;143.27;75.18;;;;;;;;;;4923407;28;20085;-82
2022/11/14 02:55:19;;;;;;;138.68;75.35;;;;;;;;;;4938677;28;20133;-83
2022/11/14 02:57:45;;;;;;;131.43;70.88;;;;;;;;;;4938630;28;20041;-84
2022/11/14 03:00:11;;;;;;;130.50;70.15;;;;;;;;;;4954883;28;20117;-84
2022/11/14 03:02:37;;;;;;;122.95;66.13;;;;;;;;;;4964834;28;20096;-83
2022/11/14 03:05:03;;;;;;;114.53;65.15;;;;;;;;;;4964732;28;20033;-84
2022/11/14 03:07:29;;;;;;;110.07;60.30;;;;;;;;;;4948642;28;20034;-84
2022/11/14 03:09:54;;;;;;;109.53;60.33;;;;;;;;;;4948855;28;20037;-84
2022/11/14 03:12:19;;;;;;;102.72;57.65;;;;;;;;;;4964320;28;20096;-83
2022/11/14 03:14:45;;;;;;;101.13;57.35;;;;;;;;;;4959361;28;20460;-83
2022/11/14 03:17:10;;;;;;;93.57;52.00;;;;;;;;;;4945482;28;20042;-83
2022/11/14 03:19:36;;;;;;;90.32;50.53;;;;;;;;;;4945350;28;20064;-83
2022/11/14 03:22:01;;;;;;;89.40;49.20;;;;;;;;;;4929470;28;20038;-83
2022/11/14 03:24:27;;;;;;;82.90;48.42;;;;;;;;;;4961038;28;20030;-83
2022/11/14 03:26:52;;;;;;;80.10;46.08;;;;;;;;;;4961071;28;20050;-83
2022/11/14 03:29:18;;;;;;;80.78;46.25;;;;;;;;;;4960857;28;20034;-83
2022/11/14 03:31:43;;;;;;;80.40;45.72;;;;;;;;;;4961015;28;20382;-83
2022/11/14 03:34:09;;;;;;;75.97;45.25;;;;;;;;;;4945062;28;20113;-83
2022/11/14 03:36:35;;;;;;;73.03;42.38;;;;;;;;;;4929474;28;20074;-83
2022/11/14 03:39:00;;;;;;;68.35;41.60;;;;;;;;;;4929295;28;20030;-83
2022/11/14 03:41:25;;;;;;;71.75;41.33;;;;;;;;;;4960400;28;20049;-82
2022/11/14 03:43:51;;;;;;;66.05;39.50;;;;;;;;;;4928826;28;20034;-83
2022/11/14 03:46:17;;;;;;;62.50;37.53;;;;;;;;;;4961287;28;20038;-83
2022/11/14 03:48:42;;;;;;;66.57;37.95;;;;;;;;;;4961099;28;20449;-83
2022/11/14 03:51:08;;;;;;;60.17;35.53;;;;;;;;;;4944580;28;20042;-83
2022/11/14 03:53:33;;;;;;;57.17;36.10;;;;;;;;;;4944460;28;20464;-83
2022/11/14 03:55:58;;;;;;;57.78;34.10;;;;;;;;;;4944585;28;20057;-83
2022/11/14 03:58:24;;;;;;;50.58;31.05;;;;;;;;;;4928479;28;20061;-83
2022/11/14 04:00:49;;;;;;;53.10;31.63;;;;;;;;;;4946372;28;20060;-83
2022/11/14 04:03:15;;;;;;;53.17;31.73;;;;;;;;;;4963233;28;20076;-83
2022/11/14 04:05:44;;;;;;;44.35;27.88;;;;;;;;;;4963821;28;20034;-83
2022/11/14 04:08:10;;;;;;;50.45;30.50;;;;;;;;;;4996172;28;20037;-83
2022/11/14 04:10:36;;;;;;;44.10;27.77;;;;;;;;;;4963360;28;20042;-83
2022/11/14 04:13:02;;;;;;;42.08;25.90;;;;;;;;;;4947461;28;20026;-83
2022/11/14 04:15:28;;;;;;;40.25;25.30;;;;;;;;;;4984773;28;20042;-84
2022/11/14 04:17:53;;;;;;;40.55;25.20;;;;;;;;;;4944393;28;20401;-83
2022/11/14 04:20:19;;;;;;;40.67;25.85;;;;;;;;;;4960543;28;20073;-83
2022/11/14 04:22:45;;;;;;;39.33;24.33;;;;;;;;;;4960034;28;20042;-82
2022/11/14 04:25:11;;;;;;;36.47;22.90;;;;;;;;;;4959823;28;20100;-83
2022/11/14 04:27:36;;;;;;;37.75;23.00;;;;;;;;;;4943849;28;20034;-83
2022/11/14 04:30:04;;;;;;;36.53;23.20;;;;;;;;;;4959995;28;20485;-83
2022/11/14 04:32:29;;;;;;;34.50;20.83;;;;;;;;;;4943990;28;20512;-83
2022/11/14 04:34:55;;;;;;;30.27;19.85;;;;;;;;;;4960071;28;20030;-83
2022/11/14 04:37:20;;;;;;;33.92;20.02;;;;;;;;;;4959931;28;20034;-83
2022/11/14 04:39:46;;;;;;;30.55;19.23;;;;;;;;;;4959295;28;20448;-83
2022/11/14 04:42:11;;;;;;;31.08;20.20;;;;;;;;;;4943609;28;20374;-82
2022/11/14 04:44:36;;;;;;;28.90;17.48;;;;;;;;;;4943392;28;20460;-82
2022/11/14 04:47:03;;;;;;;29.70;18.98;;;;;;;;;;4960123;28;20441;-83
2022/11/14 04:49:28;;;;;;;24.27;15.48;;;;;;;;;;4943919;28;20616;-83
2022/11/14 04:51:54;;;;;;;21.92;15.63;;;;;;;;;;4927936;28;20043;-83
2022/11/14 04:54:19;;;;;;;24.92;16.15;;;;;;;;;;4958914;28;20041;-82
2022/11/14 04:56:45;;;;;;;23.80;16.05;;;;;;;;;;4943410;28;20516;-83
2022/11/14 04:59:10;;;;;;;21.77;15.18;;;;;;;;;;4947604;28;20413;-83
2022/11/14 05:01:37;;;;;;;25.13;15.85;;;;;;;;;;4962583;28;20381;-82
2022/11/14 05:04:02;;;;;;;23.08;15.18;;;;;;;;;;4962204;28;20052;-83
2022/11/14 05:06:27;;;;;;;20.05;14.07;;;;;;;;;;4962386;28;20415;-82
2022/11/14 05:08:53;;;;;;;23.88;14.73;;;;;;;;;;4946007;28;20049;-82
2022/11/14 05:11:19;;;;;;;23.85;15.55;;;;;;;;;;4962444;28;20132;-82
2022/11/14 05:13:44;;;;;;;23.02;13.43;;;;;;;;;;4962648;28;20416;-82
2022/11/14 05:16:10;;;;;;;18.35;12.13;;;;;;;;;;4955688;28;20043;-83
2022/11/14 05:18:35;;;;;;;17.25;11.50;;;;;;;;;;4940015;28;20039;-82
2022/11/14 05:21:01;;;;;;;15.93;11.70;;;;;;;;;;4924622;28;20039;-82
2022/11/14 05:23:27;;;;;;;19.45;12.32;;;;;;;;;;4923122;28;20498;-83
2022/11/14 05:26:02;;;;;;;20.40;13.05;;;;;;;;;;4923881;28;20042;-83
2022/11/14 05:28:28;;;;;;;16.05;12.00;;;;;;;;;;4940389;28;20078;-82
2022/11/14 05:31:00;;;;;;;16.83;11.95;;;;;;;;;;4923834;28;20058;-83
2022/11/14 05:33:25;;;;;;;;;;;;;;;;;;4940267;28;20037;-83
2022/11/14 05:35:52;;;;;;;15.90;11.27;;;;;;;;;;4969346;28;20488;-83
2022/11/14 05:38:18;;;;;;;17.23;10.85;;;;;;;;;;4962071;28;20034;-83
2022/11/14 05:40:43;;;;;;;14.75;10.38;;;;;;;;;;4949370;28;20690;-82
2022/11/14 05:43:09;;;;;;;15.98;10.82;;;;;;;;;;4957488;28;20409;-83
2022/11/14 05:45:34;;;;;;;15.07;9.68;;;;;;;;;;4958042;28;20436;-82
2022/11/14 05:47:59;;;;;;;12.60;9.48;;;;;;;;;;4942176;28;20038;-83
2022/11/14 05:50:25;;;;;;;13.60;10.20;;;;;;;;;;4942650;28;20386;-82
2022/11/14 05:52:50;;;;;;;13.95;9.23;;;;;;;;;;4942321;28;20405;-82
2022/11/14 05:55:16;;;;;;;14.15;9.70;;;;;;;;;;4958382;28;20420;-82
2022/11/14 05:57:41;;;;;;;13.35;9.40;;;;;;;;;;4942712;28;20038;-83
2022/11/14 06:00:08;;;;;;;13.32;8.77;;;;;;;;;;4970473;28;20496;-83
2022/11/14 06:02:33;;;;;;;14.25;8.73;;;;;;;;;;4945898;28;20034;-83
2022/11/14 06:05:00;;;;;;;12.63;9.15;;;;;;;;;;4961864;28;20093;-84
2022/11/14 06:07:25;;;;;;;13.50;9.38;;;;;;;;;;4961512;28;20034;-84
2022/11/14 06:09:51;;;;;;;11.38;7.95;;;;;;;;;;4962350;28;20456;-85
2022/11/14 06:12:18;;;;;;;13.23;8.20;;;;;;;;;;4977597;28;20381;-86
2022/11/14 06:14:44;;;;;;;10.30;7.63;;;;;;;;;;4969775;28;20039;-85
2022/11/14 06:17:09;;;;;;;10.68;7.75;;;;;;;;;;4939921;28;20403;-85
2022/11/14 06:19:35;;;;;;;11.15;7.80;;;;;;;;;;4923657;28;20494;-85
2022/11/14 06:22:00;;;;;;;10.55;7.88;;;;;;;;;;4938976;28;20109;-83
2022/11/14 06:24:25;;;;;;;10.80;8.35;;;;;;;;;;4923492;28;20038;-83
2022/11/14 06:26:51;;;;;;;10.07;7.68;;;;;;;;;;4922981;28;20489;-83
2022/11/14 06:29:17;;;;;;;13.25;7.50;;;;;;;;;;4923142;28;20038;-83
2022/11/14 06:31:43;;;;;;;11.80;7.57;;;;;;;;;;4922401;28;20051;-83
2022/11/14 06:34:10;;;;;;;12.00;7.45;;;;;;;;;;4939221;28;20413;-82
2022/11/14 06:36:36;;;;;;;13.88;8.20;;;;;;;;;;4925715;28;20034;-83
2022/11/14 06:39:02;;;;;;;11.30;7.47;;;;;;;;;;4943209;28;20042;-82
2022/11/14 06:41:27;;;;;;;11.15;7.70;;;;;;;;;;4944816;28;20065;-83
2022/11/14 06:43:57;;;;;;;12.70;7.32;;;;;;;;;;4946077;28;20049;-83
2022/11/14 06:46:26;;;;;;;11.77;7.00;;;;;;;;;;4931792;28;20034;-83
2022/11/14 06:48:53;;;;;;;12.43;7.38;;;;;;;;;;4930249;28;20181;-81
2022/11/14 06:51:18;;;;;;;10.10;7.03;;;;;;;;;;4952308;28;20108;-81
2022/11/14 06:53:44;;;;;;;9.57;6.43;;;;;;;;;;4927435;28;20043;-82
2022/11/14 06:56:11;;;;;;;14.50;7.47;;;;;;;;;;4926705;28;20121;-81
2022/11/14 06:58:39;;;;;;;11.80;6.25;;;;;;;;;;4911313;28;20027;-81
2022/11/14 07:01:11;;;;;;;11.85;7.40;;;;;;;;;;4926857;28;20042;-83
2022/11/14 07:03:37;;;;;;;12.05;6.78;;;;;;;;;;4926832;28;20043;-81
2022/11/14 07:06:02;;;;;;;11.45;6.90;;;;;;;;;;4926141;28;20038;-82
2022/11/14 07:08:28;;;;;;;14.00;6.45;;;;;;;;;;4926741;28;20035;-82
2022/11/14 07:10:54;;;;;;;11.43;6.20;;;;;;;;;;4926673;28;20042;-82
2022/11/14 07:13:19;;;;;;;14.80;7.03;;;;;;;;;;4940772;28;20416;-82
2022/11/14 07:15:51;;;;;;;10.75;6.07;;;;;;;;;;4935848;28;20096;-82
2022/11/14 07:18:16;;;;;;;11.23;6.18;;;;;;;;;;4941913;28;20039;-82
2022/11/14 07:20:42;;;;;;;9.02;5.80;;;;;;;;;;4956894;28;20035;-82
2022/11/14 07:23:07;;;;;;;10.80;6.07;;;;;;;;;;4940417;28;20042;-82
2022/11/14 07:25:33;;;;;;;7.82;5.40;;;;;;;;;;4925468;28;20054;-82
2022/11/14 07:27:58;;;;;;;10.82;6.40;;;;;;;;;;4957505;28;20494;-81
2022/11/14 07:30:24;;;;;;;7.70;5.75;;;;;;;;;;4941430;28;20047;-81
2022/11/14 07:32:56;;;;;;;11.02;6.22;;;;;;;;;;4925435;28;20037;-81
2022/11/14 07:35:21;;;;;;;;;;;;;;;;;;4941829;28;20085;-81
2022/11/14 07:37:47;;;;;;;13.23;5.78;;;;;;;;;;4926010;28;19914;-82
2022/11/14 07:40:12;;;;;;;8.75;5.38;;;;;;;;;;4925895;28;20078;-81
2022/11/14 07:42:37;;;;;;;8.40;4.95;;;;;;;;;;4941163;28;20093;-81
2022/11/14 07:45:03;;;;;;;9.30;5.53;;;;;;;;;;4957632;28;20039;-81
2022/11/14 07:47:28;;;;;;;8.57;5.68;;;;;;;;;;4941061;28;20043;-81
2022/11/14 07:49:54;;;;;;;8.52;5.53;;;;;;;;;;4925742;28;20458;-81
2022/11/14 07:52:19;;;;;;;8.73;5.63;;;;;;;;;;4925697;28;20085;-81
2022/11/14 07:54:45;;;;;;;7.78;5.65;;;;;;;;;;4941526;28;20062;-81
2022/11/14 07:57:10;;;;;;;7.80;5.32;;;;;;;;;;4941060;28;20046;-81
2022/11/14 07:59:35;;;;;;;9.18;5.63;;;;;;;;;;4952445;28;20026;-81
2022/11/14 08:02:01;;;;;;;9.55;5.45;;;;;;;;;;4979525;28;20049;-82
2022/11/14 08:04:26;;;;;;;8.95;6.28;;;;;;;;;;4963482;28;20424;-82
2022/11/14 08:06:52;;;;;;;8.40;5.60;;;;;;;;;;4979722;28;20390;-82
2022/11/14 08:09:18;;;;;;;7.82;6.30;;;;;;;;;;4947587;28;20026;-82
2022/11/14 08:11:49;;;;;;;9.27;5.88;;;;;;;;;;4979443;28;20037;-82
2022/11/14 08:14:15;;;;;;;7.47;5.38;;;;;;;;;;4980396;28;20074;-82
2022/11/14 08:16:40;;;;;;;10.82;6.25;;;;;;;;;;4960560;28;20034;-82
2022/11/14 08:19:05;;;;;;;8.40;5.47;;;;;;;;;;4943705;28;20065;-82
2022/11/14 08:21:31;;;;;;;8.23;5.78;;;;;;;;;;4928565;28;20520;-82
2022/11/14 08:23:56;;;;;;;9.95;5.95;;;;;;;;;;4960079;28;20042;-82
2022/11/14 08:26:22;;;;;;;9.88;5.63;;;;;;;;;;4959876;28;20069;-82
2022/11/14 08:28:47;;;;;;;9.77;5.78;;;;;;;;;;4959973;28;20038;-82
2022/11/14 08:31:12;;;;;;;7.63;5.40;;;;;;;;;;4959485;28;20572;-82
2022/11/14 08:33:38;;;;;;;7.55;5.30;;;;;;;;;;4959677;28;20049;-83
2022/11/14 08:36:05;;;;;;;12.10;4.80;;;;;;;;;;4943910;28;20077;-82
2022/11/14 08:38:30;;;;;;;7.32;5.38;;;;;;;;;;4959999;28;20109;-82
2022/11/14 08:40:59;;;;;;;7.57;5.45;;;;;;;;;;4959707;28;20081;-82
2022/11/14 08:43:25;;;;;;;7.10;5.38;;;;;;;;;;4959362;28;20509;-81
2022/11/14 08:45:50;;;;;;;8.82;5.35;;;;;;;;;;4928210;28;20129;-81
2022/11/14 08:48:16;;;;;;;6.22;4.88;;;;;;;;;;4943302;28;20049;-81
2022/11/14 08:50:41;;;;;;;8.63;5.53;;;;;;;;;;4928190;28;20488;-81
2022/11/14 08:53:07;;;;;;;8.23;5.03;;;;;;;;;;4943438;28;20030;-82
2022/11/14 08:55:32;;;;;;;9.02;6.38;;;;;;;;;;4959494;28;20050;-81
2022/11/14 08:57:59;;;;;;;8.73;7.07;;;;;;;;;;4942805;28;20058;-81
2022/11/14 09:00:24;;;;;;;12.95;7.30;;;;;;;;;;4957814;28;20030;-82
2022/11/14 09:02:50;;;;;;;10.38;7.82;;;;;;;;;;4978060;28;20042;-80
2022/11/14 09:05:15;;;;;;;11.13;8.40;;;;;;;;;;4978743;28;20400;-81
2022/11/14 09:07:40;;;;;;;10.20;8.00;;;;;;;;;;4962508;28;20034;-81
2022/11/14 09:10:06;;;;;;;11.75;7.95;;;;;;;;;;4962443;28;20030;-81
2022/11/14 09:12:32;;;;;;;10.07;7.25;;;;;;;;;;4946206;28;20033;-80
2022/11/14 09:14:57;;;;;;;25.08;20.80;;;;;;;;;;4971473;28;20033;-81
2022/11/14 09:17:23;;;;;;;25.00;17.92;;;;;;;;;;4961571;28;20133;-81
2022/11/14 09:19:48;;;;;;;37.47;26.48;;;;;;;;;;4926580;28;20035;-81
2022/11/14 09:22:14;;;;;;;25.77;18.38;;;;;;;;;;4959419;28;20472;-81
2022/11/14 09:24:39;;;;;;;19.45;14.68;;;;;;;;;;4927220;28;20122;-82
2022/11/14 09:27:04;;;;;;;20.40;15.80;;;;;;;;;;4955814;28;20058;-81
2022/11/14 09:29:30;;;;;;;16.05;13.05;;;;;;;;;;4923424;28;20093;-81
2022/11/14 09:31:56;;;;;;;19.73;14.55;;;;;;;;;;4962147;28;20556;-80
2022/11/14 09:34:21;;;;;;;20.05;14.85;;;;;;;;;;4947851;28;20046;-81
2022/11/14 09:36:46;;;;;;;21.40;14.57;;;;;;;;;;4942905;28;20042;-81
2022/11/14 09:39:12;;;;;;;22.85;17.40;;;;;;;;;;4942749;28;20417;-80
2022/11/14 09:41:52;;;;;;;20.25;16.00;;;;;;;;;;4926950;28;20401;-81
2022/11/14 09:44:47;;;;;;;19.10;14.77;;;;;;;;;;4942539;28;20487;-81
2022/11/14 09:47:16;;;;;;;20.33;14.50;;;;;;;;;;4950018;28;20046;-80
2022/11/14 09:49:44;;;;;;;18.98;13.82;;;;;;;;;;4925499;28;20057;-81
2022/11/14 09:52:25;;;;;;;22.35;13.70;;;;;;;;;;4974683;28;20141;-81
2022/11/14 09:54:56;;;;;;;25.23;13.82;;;;;;;;;;4974723;28;20081;-81
2022/11/14 09:57:21;;;;;;;24.35;14.48;;;;;;;;;;4942642;28;20126;-80
2022/11/14 09:59:47;;;;;;;18.50;12.20;;;;;;;;;;4967377;28;20108;-81
2022/11/14 10:02:30;;;;;;;14.68;10.75;;;;;;;;;;4945650;28;20076;-81
2022/11/14 10:05:24;;;;;;;18.35;10.52;;;;;;;;;;4979985;28;20045;-80
2022/11/14 10:07:57;;;;;;;13.45;11.00;;;;;;;;;;4977938;28;20041;-81
2022/11/14 10:10:37;;;;;;;14.45;10.45;;;;;;;;;;4964295;28;20447;-81
2022/11/14 10:13:23;;;;;;;13.63;10.27;;;;;;;;;;4965053;28;20033;-81
2022/11/14 10:15:57;;;;;;;13.00;10.52;;;;;;;;;;4968660;28;20050;-80
2022/11/14 10:18:58;;;;;;;13.35;10.30;;;;;;;;;;4946321;28;20035;-81
2022/11/14 10:21:45;;;;;;;11.13;9.45;;;;;;;;;;4946065;28;20113;-80
2022/11/14 10:24:17;;;;;;;10.90;9.60;;;;;;;;;;4962353;28;20035;-81
2022/11/14 10:27:02;;;;;;;13.65;11.25;;;;;;;;;;4978106;28;20042;-80
2022/11/14 10:29:27;;;;;;;12.00;10.23;;;;;;;;;;4946772;28;20505;-81
2022/11/14 10:32:02;;;;;;;14.38;9.45;;;;;;;;;;4977562;28;20085;-80
2022/11/14 10:34:31;;;;;;;14.30;11.40;;;;;;;;;;4978253;28;20042;-80
2022/11/14 10:37:20;;;;;;;37.10;29.35;;;;;;;;;;4946391;28;20532;-80
2022/11/14 10:39:51;;;;;;;80.57;60.50;;;;;;;;;;4962126;28;20030;-80
2022/11/14 10:42:39;;;;;;;74.22;52.35;;;;;;;;;;4945997;28;20037;-80
2022/11/14 10:45:17;;;;;;;60.03;43.92;;;;;;;;;;4932653;28;20080;-80
2022/11/14 10:47:54;;;;;;;48.10;34.88;;;;;;;;;;4962180;28;20112;-81
2022/11/14 10:50:39;;;;;;;41.40;30.92;;;;;;;;;;4931419;28;20047;-81
2022/11/14 10:53:13;;;;;;;31.35;24.30;;;;;;;;;;4946406;28;20404;-80
2022/11/14 10:55:39;;;;;;;27.88;20.20;;;;;;;;;;4930095;28;20049;-80
2022/11/14 10:58:09;;;;;;;23.42;16.67;;;;;;;;;;4945445;28;20054;-80
2022/11/14 11:00:34;;;;;;;19.30;13.68;;;;;;;;;;4961295;28;20519;-80
2022/11/14 11:02:59;;;;;;;20.42;14.80;;;;;;;;;;4980549;28;20073;-80
2022/11/14 11:05:28;;;;;;;17.88;13.50;;;;;;;;;;4964407;28;20100;-81
2022/11/14 11:13:33;;;;;;;19.80;10.85;;;;;;;;;;4985770;28;20042;-80
2022/11/14 11:16:00;;;;;;;20.25;10.95;;;;;;;;;;4950507;28;20041;-81
2022/11/14 11:18:27;;;;;;;14.98;9.55;;;;;;;;;;4961699;28;20509;-81
2022/11/14 11:21:12;;;;;;;15.90;10.35;;;;;;;;;;4944696;28;20037;-80
2022/11/14 11:24:07;;;;;;;16.30;10.10;;;;;;;;;;4977354;28;20049;-80
2022/11/14 11:26:32;;;;;;;11.98;8.20;;;;;;;;;;4948236;28;20572;-80
2022/11/14 11:29:15;;;;;;;11.13;8.65;;;;;;;;;;4945213;28;20054;-80
2022/11/14 11:31:50;;;;;;;15.95;7.78;;;;;;;;;;4944758;28;20529;-80
2022/11/14 11:34:34;;;;;;;12.32;7.25;;;;;;;;;;4977187;28;20030;-80
2022/11/14 11:37:17;;;;;;;10.77;7.28;;;;;;;;;;4945510;28;20497;-80
2022/11/14 11:39:46;;;;;;;12.40;6.75;;;;;;;;;;4960999;28;20039;-81
2022/11/14 11:42:15;;;;;;;13.48;6.10;;;;;;;;;;4961028;28;20571;-81
2022/11/14 11:44:46;;;;;;;17.75;12.15;;;;;;;;;;4945180;28;20110;-80
2022/11/14 11:47:14;;;;;;;40.03;29.90;;;;;;;;;;4961143;28;20121;-80
2022/11/14 11:49:45;;;;;;;46.65;35.85;;;;;;;;;;4945212;28;20456;-80
2022/11/14 11:52:14;;;;;;;43.60;31.88;;;;;;;;;;4945188;28;20092;-80
2022/11/14 11:55:07;;;;;;;36.63;27.35;;;;;;;;;;4928680;28;20457;-81
2022/11/14 11:57:55;;;;;;;35.05;24.67;;;;;;;;;;4976720;28;20038;-81
2022/11/14 12:00:21;;;;;;;30.30;23.33;;;;;;;;;;4960073;28;20045;-81
2022/11/14 12:02:51;;;;;;;26.42;20.63;;;;;;;;;;4995725;28;20049;-81
2022/11/14 12:05:30;;;;;;;27.15;18.58;;;;;;;;;;4996302;28;20116;-81
2022/11/14 12:08:03;;;;;;;17.48;13.73;;;;;;;;;;4996073;28;20041;-81
2022/11/14 12:10:30;;;;;;;9.48;7.78;;;;;;;;;;4979638;28;20026;-80
2022/11/14 12:13:09;;;;;;;10.98;8.48;;;;;;;;;;4947451;28;20061;-81
2022/11/14 12:15:43;;;;;;;10.90;8.48;;;;;;;;;;4952076;28;20089;-80
2022/11/14 12:18:13;;;;;;;9.85;7.32;;;;;;;;;;4960424;28;20050;-81
2022/11/14 12:21:02;;;;;;;10.05;7.45;;;;;;;;;;4959928;28;20576;-80
2022/11/14 12:23:59;;;;;;;10.40;7.13;;;;;;;;;;4961936;28;20405;-80
2022/11/14 12:26:46;;;;;;;8.25;5.72;;;;;;;;;;4940651;28;20034;-82
2022/11/14 12:29:57;;;;;;;9.10;6.65;;;;;;;;;;4940680;28;20125;-80
2022/11/14 12:32:36;;;;;;;9.38;6.57;;;;;;;;;;4940450;28;20038;-81
2022/11/14 12:35:05;;;;;;;9.70;6.65;;;;;;;;;;4925048;28;20497;-81
2022/11/14 12:37:35;;;;;;;8.43;5.88;;;;;;;;;;4941288;28;20049;-81
2022/11/14 12:40:05;;;;;;;8.60;6.53;;;;;;;;;;4926594;28;20031;-81
2022/11/14 12:42:31;;;;;;;9.23;6.47;;;;;;;;;;4941083;28;20401;-81
2022/11/14 12:44:56;;;;;;;15.45;11.18;;;;;;;;;;4908945;28;20034;-81
2022/11/14 12:47:23;;;;;;;21.85;16.48;;;;;;;;;;4924740;28;20497;-81
2022/11/14 12:49:52;;;;;;;25.40;19.20;;;;;;;;;;4924927;28;20034;-80
2022/11/14 12:52:39;;;;;;;23.70;19.52;;;;;;;;;;4956527;28;20093;-80
2022/11/14 12:55:22;;;;;;;25.63;19.23;;;;;;;;;;4940023;28;20747;-81
2022/11/14 12:57:48;;;;;;;24.77;19.35;;;;;;;;;;4939974;28;20092;-81
2022/11/14 13:00:14;;;;;;;22.15;16.75;;;;;;;;;;4981919;28;20113;-80
2022/11/14 13:02:52;;;;;;;24.20;18.02;;;;;;;;;;4995115;28;20048;-80
2022/11/14 13:05:45;;;;;;;23.90;16.60;;;;;;;;;;5012317;28;20117;-81
2022/11/14 13:08:26;;;;;;;20.15;15.88;;;;;;;;;;4980102;28;20053;-81
2022/11/14 13:10:51;;;;;;;25.05;15.43;;;;;;;;;;5012632;28;20030;-81
2022/11/14 13:22:12;;;;;;;21.30;14.98;;;;;;;;;;4977740;28;20568;-81
2022/11/14 13:24:57;;;;;;;15.50;10.95;;;;;;;;;;4958585;28;20088;-81
2022/11/14 13:27:24;;;;;;;17.48;11.48;;;;;;;;;;4975370;28;20121;-81
2022/11/14 13:29:49;;;;;;;16.17;11.10;;;;;;;;;;4943340;28;20084;-81
2022/11/14 13:32:40;;;;;;;15.80;11.25;;;;;;;;;;4927200;28;20649;-81
2022/11/14 13:35:24;;;;;;;14.80;10.68;;;;;;;;;;4974677;28;20076;-82
2022/11/14 13:38:12;;;;;;;14.25;10.55;;;;;;;;;;4974636;28;20032;-80
2022/11/14 13:40:49;;;;;;;14.27;10.20;;;;;;;;;;4955598;28;20082;-80
2022/11/14 13:43:45;;;;;;;13.20;9.60;;;;;;;;;;4940763;28;20125;-80
2022/11/14 13:46:23;;;;;;;14.27;9.70;;;;;;;;;;4952189;28;20528;-81
2022/11/14 13:49:00;;;;;;;12.05;9.35;;;;;;;;;;4955894;28;20049;-81
2022/11/14 13:51:25;;;;;;;13.13;8.77;;;;;;;;;;4939722;28;20043;-81
2022/11/14 13:53:51;;;;;;;13.98;8.32;;;;;;;;;;4923582;28;20041;-81
2022/11/14 13:56:24;;;;;;;12.88;8.18;;;;;;;;;;4923139;28;20468;-80
2022/11/14 13:59:01;;;;;;;15.82;12.27;;;;;;;;;;4942909;28;20398;-80
2022/11/14 14:01:27;;;;;;;27.23;20.05;;;;;;;;;;4974283;28;20100;-80
2022/11/14 14:04:08;;;;;;;32.80;26.35;;;;;;;;;;4958592;28;20042;-80
2022/11/14 14:06:43;;;;;;;35.13;26.92;;;;;;;;;;4974616;28;20057;-83
2022/11/14 14:09:12;;;;;;;33.17;24.90;;;;;;;;;;4958682;28;20504;-80
2022/11/14 14:11:58;;;;;;;34.53;25.77;;;;;;;;;;4958106;28;20042;-80
2022/11/14 14:14:23;;;;;;;30.02;23.73;;;;;;;;;;4991489;28;20046;-81
2022/11/14 14:17:01;;;;;;;32.38;25.65;;;;;;;;;;4971480;28;20465;-80
2022/11/14 14:19:51;;;;;;;30.35;22.60;;;;;;;;;;4940150;28;20035;-80
2022/11/14 14:22:41;;;;;;;27.40;21.30;;;;;;;;;;4923581;28;20086;-81
2022/11/14 14:25:15;;;;;;;27.00;19.83;;;;;;;;;;4938676;28;20027;-80
2022/11/14 14:27:50;;;;;;;25.60;18.65;;;;;;;;;;4955467;28;20057;-80
2022/11/14 14:30:16;;;;;;;24.67;19.20;;;;;;;;;;4955310;28;20039;-80
2022/11/14 14:32:43;;;;;;;25.83;18.00;;;;;;;;;;4939025;28;20038;-80
2022/11/14 14:35:21;;;;;;;23.33;16.95;;;;;;;;;;4939085;28;20413;-80
2022/11/14 14:37:51;;;;;;;20.30;15.93;;;;;;;;;;4939510;28;20031;-81
2022/11/14 14:40:26;;;;;;;19.55;15.43;;;;;;;;;;4930495;28;20038;-80
2022/11/14 14:42:52;;;;;;;17.35;13.50;;;;;;;;;;4942393;28;20133;-80
2022/11/14 14:45:19;;;;;;;16.48;11.95;;;;;;;;;;4958199;28;20030;-81
2022/11/14 14:47:46;;;;;;;13.05;9.93;;;;;;;;;;4958510;28;20038;-80